Time;durP1;ratioP1;P1;durP2;ratioP2;P2;SDS_P1;SDS_P2;PMS_P1;PMS_P2;Temp;Humidity;BMP_temperature;BMP_pressure;BME280_temperature;BME280_humidity;BME280_pressure;Samples;Min_cycle;Max_cycle;Signal;HPM_P1;HPM_P2
2022/10/01 00:01:54;;;;;;;31.87;22.47;;;;;;;8.96;90.75;100310.53;1747267;82;20984;-86
2022/10/01 00:04:22;;;;;;;30.27;22.47;;;;;;;8.92;90.80;100309.33;1715893;83;21977;-84
2022/10/01 00:06:49;;;;;;;34.40;23.87;;;;;;;8.93;90.92;100311.48;1726090;82;21497;-86
2022/10/01 00:09:17;;;;;;;33.60;23.63;;;;;;;8.91;90.80;100306.74;1716107;83;21054;-86
2022/10/01 00:11:44;;;;;;;32.80;23.13;;;;;;;8.86;90.70;100312.11;1747109;82;21004;-82
2022/10/01 00:14:11;;;;;;;32.97;23.40;;;;;;;8.84;90.69;100317.86;1716048;83;21503;-84
2022/10/01 00:16:38;;;;;;;33.17;23.30;;;;;;;8.81;90.74;100326.22;1747248;82;21195;-84
2022/10/01 00:19:05;;;;;;;31.37;23.30;;;;;;;8.77;90.76;100315.47;1715993;83;21030;-82
2022/10/01 00:21:32;;;;;;;31.97;23.03;;;;;;;8.74;91.02;100322.95;1747278;82;21477;-85
2022/10/01 00:24:03;;;;;;;32.93;23.13;;;;;;;8.73;90.99;100325.17;1716148;83;21026;-85
2022/10/01 00:26:34;;;;;;;32.20;22.90;;;;;;;8.68;90.90;100324.00;1747192;82;21629;-84
2022/10/01 00:29:05;;;;;;;31.67;22.23;;;;;;;8.64;91.03;100318.44;1716217;83;21148;-83
2022/10/01 00:31:33;;;;;;;34.07;22.87;;;;;;;8.61;90.99;100319.84;1747043;82;21039;-86
2022/10/01 00:34:02;;;;;;;33.23;24.37;;;;;;;8.57;91.05;100326.54;1716169;83;21007;-73
2022/10/01 00:36:31;;;;;;;32.27;23.83;;;;;;;8.52;91.11;100330.58;1747142;82;21007;-84
2022/10/01 00:39:01;;;;;;;33.87;24.27;;;;;;;8.50;91.35;100328.45;1716107;83;21017;-73
2022/10/01 00:41:32;;;;;;;37.37;26.27;;;;;;;8.45;91.29;100332.95;1747255;82;21134;-82
2022/10/01 00:44:05;;;;;;;37.27;25.63;;;;;;;8.39;91.50;100323.55;1715983;83;21045;-85
2022/10/01 00:46:43;;;;;;;37.73;25.87;;;;;;;8.38;91.78;100328.80;1743614;82;21003;-73
2022/10/01 00:49:18;;;;;;;32.63;25.03;;;;;;;8.39;92.04;100329.22;1716052;83;21077;-84
2022/10/01 00:51:59;;;;;;;35.07;25.53;;;;;;;8.39;92.05;100334.45;1747109;82;21015;-73
2022/10/01 00:54:34;;;;;;;36.85;25.75;;;;;;;8.35;92.07;100327.59;1714255;83;21492;-72
2022/10/01 00:57:03;;;;;;;37.43;25.33;;;;;;;8.32;92.13;100325.91;1722373;81;21018;-73
2022/10/01 00:59:31;;;;;;;36.10;26.35;;;;;;;8.29;92.05;100323.85;1729708;81;21011;-84
2022/10/01 01:01:59;;;;;;;37.13;26.57;;;;;;;8.26;92.18;100330.86;1708070;81;20997;-86
2022/10/01 01:04:26;;;;;;;36.37;26.83;;;;;;;8.23;92.36;100319.20;1735156;81;21054;-87
2022/10/01 01:06:58;;;;;;;39.67;27.03;;;;;;;8.23;92.44;100328.34;1745389;81;21135;-72
2022/10/01 01:09:35;;;;;;;36.73;25.90;;;;;;;8.20;92.43;100331.05;1754068;81;20999;-85
2022/10/01 01:12:26;;;;;;;36.20;26.77;;;;;;;8.18;92.60;100328.07;1753848;81;21338;-87
2022/10/01 01:15:09;;;;;;;;;;;;;;;8.18;92.68;100326.77;1741540;81;20995;-81
2022/10/01 01:18:08;;;;;;;40.63;26.57;;;;;;;8.14;92.80;100318.59;1731821;82;20451;-79
2022/10/01 01:21:15;;;;;;;40.87;26.97;;;;;;;8.11;92.89;100318.23;1746276;81;21233;-84
2022/10/01 01:24:09;;;;;;;36.57;26.90;;;;;;;8.11;93.07;100314.77;1753327;81;21102;-87
2022/10/01 01:26:57;;;;;;;37.77;26.10;;;;;;;8.09;92.99;100308.73;1724173;83;21080;-73
2022/10/01 01:29:44;;;;;;;39.63;26.80;;;;;;;8.05;92.96;100307.52;1750200;81;21110;-87
2022/10/01 01:32:20;;;;;;;40.37;28.20;;;;;;;8.00;92.97;100305.48;1712047;83;21466;-84
2022/10/01 01:34:50;;;;;;;39.87;27.93;;;;;;;7.98;92.99;100305.11;1749649;81;22067;-87
2022/10/01 01:37:21;;;;;;;37.48;26.60;;;;;;;7.95;93.14;100302.17;1727381;81;21046;-73
2022/10/01 01:39:51;;;;;;;41.03;28.47;;;;;;;7.93;93.25;100295.27;1724355;83;22011;-87
2022/10/01 01:42:30;;;;;;;40.28;28.77;;;;;;;7.92;93.21;100292.23;1754380;81;26567;-87
2022/10/01 01:45:00;;;;;;;37.60;26.83;;;;;;;7.91;93.47;100291.84;1724194;83;21029;-88
2022/10/01 01:47:31;;;;;;;40.90;28.17;;;;;;;7.92;93.66;100292.23;1754227;81;21122;-86
2022/10/01 01:50:01;;;;;;;40.43;28.97;;;;;;;7.92;93.59;100289.17;1754163;81;20968;-86
2022/10/01 01:52:29;;;;;;;39.75;28.60;;;;;;;7.92;93.69;100282.65;1724451;83;23066;-83
2022/10/01 01:54:57;;;;;;;42.57;30.00;;;;;;;7.92;93.69;100280.49;1754171;81;20988;-84
2022/10/01 01:57:25;;;;;;;39.87;28.50;;;;;;;7.88;93.49;100275.82;1724339;83;21008;-87
2022/10/01 01:59:54;;;;;;;41.40;28.67;;;;;;;7.87;93.56;100275.84;1754468;81;21100;-86
2022/10/01 02:02:27;;;;;;;38.67;27.30;;;;;;;7.85;93.58;100277.21;1754183;81;21035;-72
2022/10/01 02:05:07;;;;;;;40.73;29.17;;;;;;;7.81;93.49;100269.05;1733451;81;21019;-87
2022/10/01 02:08:01;;;;;;;41.83;28.73;;;;;;;7.80;93.61;100272.56;1736622;81;20972;-73
2022/10/01 02:11:04;;;;;;;41.77;28.77;;;;;;;7.78;93.59;100274.36;1724409;83;20995;-73
2022/10/01 02:14:05;;;;;;;45.77;28.43;;;;;;;7.74;93.81;100275.35;1754166;81;21129;-80
2022/10/01 02:16:56;;;;;;;41.57;28.37;;;;;;;7.75;94.18;100278.35;1724222;83;21535;-85
2022/10/01 02:19:35;;;;;;;46.83;30.37;;;;;;;7.73;94.23;100277.11;1754479;81;20999;-73
2022/10/01 02:22:12;;;;;;;45.33;29.17;;;;;;;7.73;94.29;100273.62;1722602;83;20962;-72
2022/10/01 02:24:47;;;;;;;43.03;28.87;;;;;;;7.70;94.42;100272.41;1754478;81;21003;-84
2022/10/01 02:27:38;;;;;;;41.23;28.30;;;;;;;7.69;94.50;100268.95;1754322;81;21123;-83
2022/10/01 02:30:08;;;;;;;;;;;;;;;7.66;94.42;100267.73;1756615;81;20999;-84
2022/10/01 02:32:39;;;;;;;42.07;27.73;;;;;;;7.65;94.77;100268.63;1754106;81;20199;-86
2022/10/01 02:35:08;;;;;;;;;;;;;;;7.64;94.79;100263.45;1757200;81;21012;-72
2022/10/01 02:37:38;;;;;;;40.00;26.37;;;;;;;7.66;95.30;100270.34;1754214;81;20458;-87
2022/10/01 02:40:11;;;;;;;36.05;26.15;;;;;;;7.67;95.05;100260.75;1724546;83;21538;-76
2022/10/01 02:42:40;;;;;;;36.93;25.13;;;;;;;7.64;94.85;100266.91;1754024;81;20952;-86
2022/10/01 02:45:10;;;;;;;40.13;26.93;;;;;;;7.61;94.85;100261.77;1754414;81;20992;-79
2022/10/01 02:47:45;;;;;;;36.93;25.70;;;;;;;7.59;94.87;100260.53;1754251;81;21022;-87
2022/10/01 02:50:13;;;;;;;35.53;25.20;;;;;;;7.59;94.92;100259.64;1724519;83;23211;-87
2022/10/01 02:52:49;;;;;;;37.40;26.70;;;;;;;7.56;94.78;100261.03;1754066;81;21925;-87
2022/10/01 02:55:20;;;;;;;36.87;25.13;;;;;;;7.52;94.74;100262.88;1754014;81;21001;-85
2022/10/01 02:57:47;;;;;;;42.33;26.70;;;;;;;7.51;94.67;100261.60;1754177;81;21008;-86
2022/10/01 03:00:20;;;;;;;38.60;26.70;;;;;;;7.50;95.01;100255.53;1754234;81;21011;-82
2022/10/01 03:02:48;;;;;;;37.20;26.60;;;;;;;7.49;94.97;100248.62;1724139;83;21076;-73
2022/10/01 03:05:17;;;;;;;37.60;25.47;;;;;;;7.48;94.99;100249.53;1732962;81;21098;-85
2022/10/01 03:07:45;;;;;;;40.73;25.67;;;;;;;7.48;95.02;100252.14;1754135;81;21434;-86
2022/10/01 03:10:14;;;;;;;39.43;26.10;;;;;;;7.50;95.43;100245.11;1724376;83;21491;-86
2022/10/01 03:12:45;;;;;;;37.70;25.82;;;;;;;7.51;95.14;100244.65;1754299;81;20980;-73
2022/10/01 03:15:15;;;;;;;36.77;25.40;;;;;;;7.50;95.38;100242.50;1724129;83;21247;-86
2022/10/01 03:17:43;;;;;;;39.18;26.05;;;;;;;7.51;95.15;100242.92;1754198;81;21542;-73
2022/10/01 03:20:11;;;;;;;40.97;25.93;;;;;;;7.49;95.25;100240.80;1754415;81;21022;-82
2022/10/01 03:22:38;;;;;;;35.30;24.47;;;;;;;7.49;95.19;100244.70;1754210;81;20888;-75
2022/10/01 03:25:06;;;;;;;39.10;25.80;;;;;;;7.47;94.96;100239.12;1754477;81;21035;-76
2022/10/01 03:27:33;;;;;;;38.23;25.20;;;;;;;7.43;94.92;100239.66;1754193;81;21011;-86
2022/10/01 03:29:59;;;;;;;38.97;24.47;;;;;;;7.42;95.12;100243.14;1724415;83;21973;-86
2022/10/01 03:32:26;;;;;;;38.33;25.57;;;;;;;7.41;95.22;100238.84;1753935;81;21015;-88
2022/10/01 03:34:54;;;;;;;34.97;24.53;;;;;;;7.42;95.26;100234.47;1724102;83;21001;-88
2022/10/01 03:37:21;;;;;;;36.57;25.13;;;;;;;7.40;95.17;100237.56;1754098;81;21039;-73
2022/10/01 03:39:48;;;;;;;36.13;24.67;;;;;;;7.37;95.26;100234.16;1754194;81;20999;-87
2022/10/01 03:42:15;;;;;;;38.53;24.57;;;;;;;7.37;95.29;100241.98;1724247;83;22189;-79
2022/10/01 03:44:43;;;;;;;34.73;22.70;;;;;;;7.37;95.28;100245.02;1753986;81;21054;-84
2022/10/01 03:47:10;;;;;;;34.93;23.83;;;;;;;7.35;95.15;100240.31;1724151;83;21001;-84
2022/10/01 03:49:37;;;;;;;32.07;23.70;;;;;;;7.28;94.96;100239.59;1754159;81;20927;-86
2022/10/01 03:52:06;;;;;;;33.77;22.73;;;;;;;7.26;95.16;100236.20;1754196;81;21007;-75
2022/10/01 03:54:33;;;;;;;34.23;21.93;;;;;;;7.23;95.15;100231.03;1724018;83;21122;-86
2022/10/01 03:57:00;;;;;;;31.17;22.07;;;;;;;7.21;95.08;100239.82;1754441;81;21172;-87
2022/10/01 03:59:28;;;;;;;29.83;20.97;;;;;;;7.18;95.25;100226.42;1757124;81;21023;-81
2022/10/01 04:01:56;;;;;;;31.60;21.43;;;;;;;7.16;95.22;100233.41;1726961;83;21032;-85
2022/10/01 04:04:23;;;;;;;29.73;20.73;;;;;;;7.15;95.13;100231.71;1742825;81;21094;-83
2022/10/01 04:06:50;;;;;;;32.93;20.90;;;;;;;7.11;94.92;100223.55;1721100;81;21128;-88
2022/10/01 04:09:17;;;;;;;28.90;20.17;;;;;;;7.07;95.18;100222.78;1739257;81;21063;-73
2022/10/01 04:11:44;;;;;;;29.57;20.40;;;;;;;7.06;95.21;100224.11;1727056;83;21029;-87
2022/10/01 04:14:11;;;;;;;27.50;19.87;;;;;;;7.06;95.18;100221.05;1757127;81;21015;-79
2022/10/01 04:16:38;;;;;;;28.00;20.40;;;;;;;7.01;94.96;100223.36;1757537;81;20972;-72
2022/10/01 04:19:05;;;;;;;27.80;19.67;;;;;;;6.96;95.01;100222.65;1726924;83;21205;-74
2022/10/01 04:21:32;;;;;;;30.43;19.57;;;;;;;6.93;94.90;100224.88;1757301;81;21494;-87
2022/10/01 04:23:59;;;;;;;27.63;20.23;;;;;;;6.89;95.15;100222.77;1727025;83;21044;-82
2022/10/01 04:26:27;;;;;;;30.63;21.03;;;;;;;6.90;95.42;100221.91;1757426;81;21014;-88
2022/10/01 04:28:54;;;;;;;27.73;20.27;;;;;;;6.88;95.25;100213.71;1726974;83;21061;-87
2022/10/01 04:31:24;;;;;;;29.83;21.17;;;;;;;6.86;95.30;100219.40;1757440;81;21032;-73
2022/10/01 04:33:56;;;;;;;30.35;20.75;;;;;;;6.83;95.09;100217.72;1726998;83;28112;-73
2022/10/01 04:36:24;;;;;;;32.23;20.90;;;;;;;6.80;95.12;100219.56;1757441;81;21019;-72
2022/10/01 04:38:54;;;;;;;27.77;20.80;;;;;;;6.78;95.06;100225.24;1757121;81;20971;-86
2022/10/01 04:41:21;;;;;;;28.20;21.20;;;;;;;6.74;95.15;100222.32;1727228;83;21096;-86
2022/10/01 04:43:48;;;;;;;28.23;21.10;;;;;;;6.72;95.19;100228.85;1757105;81;21084;-88
2022/10/01 04:46:16;;;;;;;28.90;21.23;;;;;;;6.72;95.25;100226.25;1757145;81;21042;-73
2022/10/01 04:48:43;;;;;;;27.50;18.90;;;;;;;6.70;95.41;100224.97;1757171;81;20992;-87
2022/10/01 04:51:10;;;;;;;28.83;20.77;;;;;;;6.67;94.96;100222.89;1727031;83;21585;-88
2022/10/01 04:53:37;;;;;;;30.00;21.97;;;;;;;6.66;95.33;100222.49;1757296;81;21500;-73
2022/10/01 04:56:05;;;;;;;29.80;21.83;;;;;;;6.67;95.52;100221.59;1757503;81;21083;-88
2022/10/01 04:58:32;;;;;;;29.57;20.57;;;;;;;6.69;95.71;100221.97;1755387;81;20987;-87
2022/10/01 05:00:59;;;;;;;27.13;19.77;;;;;;;6.69;95.51;100221.97;1724129;83;21011;-86
2022/10/01 05:03:27;;;;;;;24.50;19.00;;;;;;;6.72;95.68;100220.19;1735029;82;21041;-87
2022/10/01 05:05:54;;;;;;;29.83;20.87;;;;;;;6.73;95.57;100221.89;1736791;81;21024;-87
2022/10/01 05:08:21;;;;;;;31.17;21.67;;;;;;;6.73;95.58;100216.23;1724300;83;21933;-88
2022/10/01 05:10:49;;;;;;;27.30;19.17;;;;;;;6.75;95.56;100222.27;1754122;81;21003;-87
2022/10/01 05:13:16;;;;;;;28.80;20.77;;;;;;;6.73;95.26;100220.59;1724158;83;21439;-73
2022/10/01 05:15:43;;;;;;;29.17;20.97;;;;;;;6.74;95.33;100210.59;1754463;81;21011;-87
2022/10/01 05:18:11;;;;;;;27.43;18.90;;;;;;;6.75;95.40;100212.30;1724302;83;21282;-87
2022/10/01 05:20:38;;;;;;;28.40;20.47;;;;;;;6.78;95.58;100217.43;1754490;81;21431;-73
2022/10/01 05:23:05;;;;;;;29.27;21.10;;;;;;;6.80;95.47;100214.34;1754284;81;21054;-87
2022/10/01 05:25:32;;;;;;;26.73;20.30;;;;;;;6.80;95.58;100216.95;1724596;83;21495;-88
2022/10/01 05:28:04;;;;;;;26.83;20.03;;;;;;;6.83;95.57;100216.87;1731811;81;21423;-82
2022/10/01 05:30:32;;;;;;;31.50;24.50;;;;;;;6.86;95.74;100216.80;1714051;82;21042;-86
2022/10/01 05:33:03;;;;;;;28.70;20.93;;;;;;;6.90;95.89;100213.20;1731526;82;21123;-87
2022/10/01 05:35:30;;;;;;;32.70;21.40;;;;;;;6.92;95.68;100210.97;1723453;82;20918;-79
2022/10/01 05:38:00;;;;;;;28.57;20.77;;;;;;;6.92;95.75;100207.52;1728263;82;21530;-79
2022/10/01 05:40:27;;;;;;;29.48;21.27;;;;;;;6.95;95.87;100206.13;1720107;82;21068;-77
2022/10/01 05:42:58;;;;;;;28.73;21.27;;;;;;;6.97;95.70;100202.20;1731902;82;21568;-79
2022/10/01 05:45:30;;;;;;;27.70;19.73;;;;;;;6.99;95.84;100197.81;1726192;82;21068;-75
2022/10/01 05:48:04;;;;;;;26.80;21.33;;;;;;;7.00;95.82;100200.81;1721609;82;21288;-74
2022/10/01 05:50:34;;;;;;;28.90;20.60;;;;;;;7.02;95.79;100195.12;1726415;82;21033;-79
2022/10/01 05:53:02;;;;;;;28.40;20.97;;;;;;;7.03;95.86;100197.67;1717176;82;21061;-79
2022/10/01 05:55:33;;;;;;;31.10;20.23;;;;;;;7.07;95.81;100189.35;1723520;82;21060;-80
2022/10/01 05:58:02;;;;;;;29.70;22.48;;;;;;;7.09;95.93;100186.23;1718973;82;21159;-80
2022/10/01 06:00:30;;;;;;;32.37;22.07;;;;;;;7.13;95.92;100186.58;1731961;82;21040;-77
2022/10/01 06:02:59;;;;;;;30.63;21.93;;;;;;;7.14;95.90;100192.19;1722635;82;21088;-79
2022/10/01 06:05:28;;;;;;;30.83;21.93;;;;;;;7.17;96.00;100187.34;1718806;82;21037;-76
2022/10/01 06:07:56;;;;;;;30.20;22.07;;;;;;;7.22;96.12;100183.72;1730006;82;21056;-80
2022/10/01 06:10:24;;;;;;;30.90;22.00;;;;;;;7.24;95.99;100181.94;1720743;82;21200;-79
2022/10/01 06:12:51;;;;;;;29.93;22.27;;;;;;;7.28;96.15;100178.78;1732425;82;20949;-80
2022/10/01 06:15:18;;;;;;;31.40;22.07;;;;;;;7.31;96.17;100178.70;1722942;82;21065;-80
2022/10/01 06:17:45;;;;;;;33.20;22.27;;;;;;;7.35;96.18;100175.98;1717094;82;21021;-78
2022/10/01 06:20:16;;;;;;;30.53;21.50;;;;;;;7.36;96.07;100177.67;1716952;82;21474;-79
2022/10/01 06:22:43;;;;;;;29.77;20.70;;;;;;;7.40;96.13;100173.68;1736711;82;22083;-78
2022/10/01 06:25:12;;;;;;;29.80;22.33;;;;;;;7.41;96.13;100178.87;1726995;82;22033;-78
2022/10/01 06:27:39;;;;;;;27.23;19.83;;;;;;;7.45;96.29;100170.50;1735615;82;21577;-72
2022/10/01 06:30:08;;;;;;;30.47;21.87;;;;;;;7.50;96.42;100170.78;1728959;82;21040;-76
2022/10/01 06:32:35;;;;;;;28.67;20.43;;;;;;;7.56;96.64;100165.84;1736096;82;21048;-75
2022/10/01 06:35:03;;;;;;;28.57;20.50;;;;;;;7.61;96.63;100175.70;1731158;82;22047;-80
2022/10/01 06:37:30;;;;;;;29.43;21.07;;;;;;;7.66;96.75;100176.42;1723397;82;21064;-76
2022/10/01 06:39:58;;;;;;;30.40;21.97;;;;;;;7.74;96.82;100177.52;1733185;80;21028;-77
2022/10/01 06:42:24;;;;;;;29.93;21.30;;;;;;;7.78;96.84;100169.98;1727907;80;21574;-79
2022/10/01 06:44:52;;;;;;;32.30;21.03;;;;;;;7.85;96.92;100175.91;1723426;80;21032;-74
2022/10/01 06:47:18;;;;;;;29.47;20.67;;;;;;;7.90;96.82;100182.69;1718897;80;21275;-73
2022/10/01 06:49:45;;;;;;;30.83;22.07;;;;;;;7.94;96.81;100177.77;1731184;80;20949;-73
2022/10/01 06:55:00;;;;;;;26.30;19.60;;;;;;;8.07;96.88;100178.73;1733512;80;21045;-74
2022/10/01 06:57:27;;;;;;;27.60;19.40;;;;;;;8.10;96.68;100170.34;1735768;80;21038;-74
2022/10/01 06:59:54;;;;;;;26.43;19.17;;;;;;;8.16;96.71;100167.54;1697242;80;21103;-74
2022/10/01 07:02:30;;;;;;;27.20;19.00;;;;;;;8.23;96.67;100161.23;1682415;84;21092;-75
2022/10/01 07:04:58;;;;;;;25.97;18.80;;;;;;;8.27;96.57;100157.61;1688215;83;21084;-73
2022/10/01 07:07:35;;;;;;;23.37;17.37;;;;;;;8.34;96.56;100167.44;1688297;83;21077;-72
2022/10/01 07:10:05;;;;;;;25.27;19.03;;;;;;;8.43;96.74;100161.09;1683719;84;21049;-74
2022/10/01 07:12:35;;;;;;;25.53;17.93;;;;;;;8.54;96.69;100155.53;1689369;83;21813;-74
2022/10/01 07:15:04;;;;;;;26.33;17.75;;;;;;;8.63;96.60;100149.53;1683315;84;21037;-74
2022/10/01 07:17:33;;;;;;;24.27;16.73;;;;;;;8.74;96.67;100159.63;1691704;84;21092;-73
2022/10/01 07:20:01;;;;;;;22.87;17.37;;;;;;;8.86;96.57;100153.98;1693462;84;21056;-74
2022/10/01 07:22:31;;;;;;;20.27;16.10;;;;;;;8.97;96.44;100160.16;1679984;84;21041;-73
2022/10/01 07:24:58;;;;;;;20.45;16.35;;;;;;;9.07;96.50;100155.02;1687997;84;21186;-73
2022/10/01 07:27:25;;;;;;;19.20;15.77;;;;;;;9.20;96.42;100159.37;1688574;84;21566;-74
2022/10/01 07:29:52;;;;;;;20.40;16.17;;;;;;;9.30;96.30;100149.43;1686587;84;21408;-74
2022/10/01 07:32:19;;;;;;;20.70;15.47;;;;;;;9.43;96.26;100149.85;1686940;84;21092;-73
2022/10/01 07:34:47;;;;;;;19.13;14.53;;;;;;;9.54;96.15;100147.23;1686938;84;21578;-73
2022/10/01 07:37:14;;;;;;;20.70;15.50;;;;;;;9.67;96.22;100144.16;1687022;83;21079;-74
2022/10/01 07:39:41;;;;;;;20.10;14.97;;;;;;;9.81;96.22;100144.05;1688371;84;21044;-73
2022/10/01 07:42:08;;;;;;;18.40;14.80;;;;;;;9.98;96.29;100140.78;1682447;83;21041;-74
2022/10/01 07:44:36;;;;;;;17.07;14.37;;;;;;;10.13;95.97;100134.08;1691564;84;22081;-73
2022/10/01 07:47:03;;;;;;;18.33;14.17;;;;;;;10.26;95.63;100134.00;1679218;83;21092;-74
2022/10/01 07:49:30;;;;;;;17.27;14.23;;;;;;;10.43;95.90;100131.19;1689059;84;21311;-74
2022/10/01 07:51:58;;;;;;;18.33;14.07;;;;;;;10.62;95.73;100125.59;1687166;83;20953;-73
2022/10/01 07:54:25;;;;;;;18.57;13.90;;;;;;;10.79;95.83;100117.02;1686436;84;21096;-73
2022/10/01 07:56:54;;;;;;;16.27;13.03;;;;;;;10.94;95.90;100115.03;1691538;84;21100;-77
2022/10/01 07:59:22;;;;;;;16.40;12.57;;;;;;;11.05;95.32;100106.70;1695227;82;21530;-79
2022/10/01 08:01:51;;;;;;;14.18;11.30;;;;;;;11.18;95.36;100105.72;1717025;82;21521;-79
2022/10/01 08:07:07;;;;;;;15.10;11.40;;;;;;;11.36;94.41;100099.66;1716475;82;21518;-75
2022/10/01 08:09:35;;;;;;;15.08;11.22;;;;;;;11.51;94.25;100096.79;1713902;82;21020;-81
2022/10/01 08:12:02;;;;;;;16.05;12.05;;;;;;;11.61;93.92;100084.95;1718577;82;21063;-79
2022/10/01 08:14:29;;;;;;;17.87;12.50;;;;;;;11.75;93.79;100079.49;1730061;82;21137;-79
2022/10/01 08:16:57;;;;;;;16.67;11.83;;;;;;;11.89;93.62;100080.19;1713694;82;21036;-79
2022/10/01 08:19:24;;;;;;;13.45;11.40;;;;;;;12.00;93.29;100081.41;1714030;82;21045;-80
2022/10/01 08:21:51;;;;;;;16.25;10.98;;;;;;;12.18;93.41;100073.08;1723673;82;21494;-78
2022/10/01 08:24:18;;;;;;;15.35;11.53;;;;;;;12.33;92.95;100074.56;1714754;82;21045;-77
2022/10/01 08:26:54;;;;;;;13.60;11.50;;;;;;;12.49;92.78;100067.62;1726188;82;21062;-85
2022/10/01 08:29:21;;;;;;;13.15;10.95;;;;;;;12.66;92.52;100066.77;1715045;82;21029;-79
2022/10/01 08:31:49;;;;;;;16.10;11.88;;;;;;;12.82;91.94;100061.10;1726064;82;21052;-79
2022/10/01 08:34:16;;;;;;;15.68;11.60;;;;;;;12.99;91.71;100054.11;1714112;82;21049;-77
2022/10/01 08:36:43;;;;;;;13.85;9.68;;;;;;;13.18;91.47;100053.53;1730696;82;21474;-77
2022/10/01 08:39:12;;;;;;;12.53;9.55;;;;;;;13.32;91.33;100052.82;1719759;82;21083;-80
2022/10/01 08:42:03;;;;;;;12.90;10.25;;;;;;;13.48;90.71;100046.27;1730629;82;21024;-80
2022/10/01 08:44:40;;;;;;;11.63;9.43;;;;;;;13.61;90.80;100045.98;1716621;82;20921;-79
2022/10/01 08:47:18;;;;;;;11.83;8.80;;;;;;;13.81;90.36;100049.66;1737986;82;21551;-79
2022/10/01 08:49:55;;;;;;;16.67;9.30;;;;;;;13.97;89.80;100047.50;1715434;82;21080;-80
2022/10/01 08:52:35;;;;;;;12.23;8.70;;;;;;;14.16;89.70;100044.19;1721958;81;21374;-81
2022/10/01 08:55:13;;;;;;;9.90;7.85;;;;;;;14.31;88.56;100040.28;1726261;82;21008;-79
2022/10/01 08:58:00;;;;;;;11.30;8.23;;;;;;;14.39;87.90;100033.62;1715728;82;21077;-76
2022/10/01 09:00:30;;;;;;;9.23;7.20;;;;;;;14.46;87.81;100026.18;1718227;82;21048;-80
2022/10/01 09:03:01;;;;;;;8.25;7.03;;;;;;;14.51;87.39;100024.97;1728234;81;21536;-73
2022/10/01 09:05:34;;;;;;;9.98;6.80;;;;;;;14.55;86.83;100021.73;1715984;82;21695;-78
2022/10/01 09:08:24;;;;;;;8.68;7.15;;;;;;;14.64;86.83;100019.86;1726271;82;21040;-81
2022/10/01 09:11:03;;;;;;;;;;;;;;;14.81;86.33;100017.52;1731429;81;21507;-83
2022/10/01 09:13:50;;;;;;;9.68;6.42;;;;;;;14.95;85.43;100000.84;1732371;81;20177;-82
2022/10/01 09:16:43;;;;;;;11.73;6.97;;;;;;;15.11;85.68;99998.95;1744141;82;21008;-81
2022/10/01 09:19:30;;;;;;;9.93;7.17;;;;;;;15.25;85.06;99991.49;1744091;82;21304;-80
2022/10/01 09:22:17;;;;;;;10.05;6.47;;;;;;;15.38;84.97;99996.86;1741048;80;21025;-79
2022/10/01 09:24:49;;;;;;;7.83;6.50;;;;;;;15.56;84.98;99981.14;1707818;80;20997;-82
2022/10/01 09:27:20;;;;;;;9.50;6.95;;;;;;;15.85;84.97;99977.09;1726988;81;20996;-81
2022/10/01 09:30:02;;;;;;;8.48;6.92;;;;;;;16.13;84.85;99966.02;1727052;81;21010;-81
2022/10/01 09:32:37;;;;;;;10.03;6.42;;;;;;;16.42;83.89;99971.52;1714054;83;21086;-81
2022/10/01 09:35:25;;;;;;;9.60;7.15;;;;;;;16.63;83.38;99967.88;1736584;81;21496;-84
2022/10/01 09:38:23;;;;;;;8.73;6.62;;;;;;;16.98;83.40;99961.94;1647219;86;21026;-82
2022/10/01 09:40:56;;;;;;;7.37;6.60;;;;;;;17.17;82.05;99967.62;1641467;86;21027;-80
2022/10/01 09:43:33;;;;;;;8.70;6.37;;;;;;;17.31;81.25;99960.50;1641574;86;21196;-79
2022/10/01 09:46:05;;;;;;;7.62;5.37;;;;;;;17.46;81.10;99957.20;1641774;86;22039;-81
2022/10/01 09:48:40;;;;;;;7.92;5.50;;;;;;;17.60;80.77;99957.91;1641361;86;21016;-80
2022/10/01 09:51:21;;;;;;;7.78;5.33;;;;;;;17.59;79.38;99954.87;1641483;86;21019;-80
2022/10/01 09:54:00;;;;;;;6.78;5.40;;;;;;;17.49;79.33;99951.23;1641126;86;21510;-81
2022/10/01 09:56:43;;;;;;;6.30;4.58;;;;;;;17.43;78.74;99956.98;1613963;88;21147;-83
2022/10/01 09:59:16;;;;;;;6.70;4.47;;;;;;;17.25;77.71;99949.03;1640583;86;21220;-80
2022/10/01 10:01:50;;;;;;;6.50;5.00;;;;;;;17.09;77.78;99950.11;1636476;86;21107;-80
2022/10/01 10:04:22;;;;;;;8.53;5.53;;;;;;;17.00;77.27;99944.64;1675946;84;21524;-82
2022/10/01 10:06:53;;;;;;;7.17;4.80;;;;;;;16.87;77.29;99952.11;1636756;87;21113;-79
2022/10/01 10:09:25;;;;;;;5.85;4.60;;;;;;;16.80;77.35;99947.37;1668538;85;21039;-78
2022/10/01 10:11:55;;;;;;;6.92;4.75;;;;;;;16.74;77.25;99942.00;1666544;81;21466;-78
2022/10/01 10:14:39;;;;;;;5.40;4.50;;;;;;;16.68;77.17;99934.02;1754335;81;21031;-79
2022/10/01 10:17:14;;;;;;;6.92;4.37;;;;;;;16.60;76.83;99937.67;1722700;83;21477;-79
2022/10/01 10:19:50;;;;;;;6.45;4.50;;;;;;;16.48;76.56;99935.38;1738630;81;21012;-79
2022/10/01 10:22:26;;;;;;;8.03;4.28;;;;;;;16.39;76.58;99936.50;1721706;83;21117;-78
2022/10/01 10:25:04;;;;;;;6.83;4.03;;;;;;;16.33;76.87;99928.52;1754227;81;21035;-80
2022/10/01 10:27:29;;;;;;;6.12;4.65;;;;;;;16.28;76.68;99922.69;1753315;81;21022;-80
2022/10/01 10:30:08;;;;;;;6.03;5.10;;;;;;;16.23;76.57;99919.50;1720357;83;21007;-81
2022/10/01 10:32:35;;;;;;;5.40;4.45;;;;;;;16.20;76.57;99917.91;1749544;81;21004;-78
2022/10/01 10:35:05;;;;;;;5.95;4.47;;;;;;;16.16;76.66;99913.80;1754098;81;21537;-78
2022/10/01 10:37:37;;;;;;;6.65;4.97;;;;;;;16.12;76.46;99908.81;1717029;83;21303;-82
2022/10/01 10:40:07;;;;;;;5.58;4.40;;;;;;;16.00;76.53;99902.56;1738557;81;20981;-80
2022/10/01 10:42:37;;;;;;;6.10;4.92;;;;;;;15.95;76.53;99897.58;1754098;81;21007;-79
2022/10/01 10:45:11;;;;;;;8.65;5.17;;;;;;;15.93;76.58;99897.31;1754224;81;20960;-82
2022/10/01 10:47:45;;;;;;;10.08;4.90;;;;;;;15.91;76.69;99894.78;1754145;81;21039;-80
2022/10/01 10:50:34;;;;;;;7.80;4.75;;;;;;;15.84;76.64;99891.69;1754137;81;21116;-80
2022/10/01 10:53:20;;;;;;;6.87;5.05;;;;;;;15.82;76.80;99888.33;1723093;83;21458;-77
2022/10/01 10:56:01;;;;;;;9.33;5.17;;;;;;;15.81;76.85;99882.65;1743576;81;20999;-77
2022/10/01 10:58:39;;;;;;;6.47;5.37;;;;;;;15.76;76.71;99885.23;1718944;83;21524;-78
2022/10/01 11:01:16;;;;;;;7.20;5.45;;;;;;;15.73;77.02;99884.95;1745866;81;21046;-75
2022/10/01 11:03:59;;;;;;;8.43;6.70;;;;;;;15.76;77.28;99885.23;1720087;81;21107;-76
2022/10/01 11:06:27;;;;;;;10.43;6.85;;;;;;;15.76;77.15;99879.46;1754078;81;20995;-76
2022/10/01 11:09:03;;;;;;;8.08;6.05;;;;;;;15.76;77.23;99876.82;1754040;81;21569;-76
2022/10/01 11:11:42;;;;;;;6.65;5.67;;;;;;;15.74;77.37;99868.17;1754139;81;21003;-77
2022/10/01 11:14:37;;;;;;;11.03;6.17;;;;;;;15.83;77.43;99864.06;1729364;81;21070;-75
2022/10/01 11:17:30;;;;;;;10.60;7.47;;;;;;;15.88;77.43;99863.73;1723928;81;21305;-76
2022/10/01 11:20:06;;;;;;;13.60;8.80;;;;;;;16.01;77.83;99848.73;1719559;82;21063;-76
2022/10/01 11:23:08;;;;;;;13.43;8.15;;;;;;;16.01;77.83;99848.73;1711960;81;21085;-77
2022/10/01 11:26:00;;;;;;;18.90;9.95;;;;;;;16.14;77.51;99846.95;1722903;81;21007;-76
2022/10/01 11:28:39;;;;;;;8.30;6.42;;;;;;;16.32;77.64;99845.30;1687407;83;21054;-76
2022/10/01 11:31:38;;;;;;;8.13;6.08;;;;;;;16.45;77.41;99834.23;1723262;81;21323;-76
2022/10/01 11:34:31;;;;;;;7.70;5.12;;;;;;;16.54;77.30;99835.38;1694754;82;20904;-77
2022/10/01 11:37:32;;;;;;;9.65;5.05;;;;;;;16.64;77.08;99831.13;1724838;81;21524;-77
2022/10/01 11:40:04;;;;;;;5.55;4.83;;;;;;;16.70;76.76;99819.63;1722123;81;21008;-75
2022/10/01 11:42:35;;;;;;;7.12;5.30;;;;;;;16.80;76.76;99805.78;1714384;81;21009;-74
2022/10/01 11:45:25;;;;;;;8.13;6.47;;;;;;;16.90;76.48;99809.42;1708006;82;21279;-79
2022/10/01 11:48:06;;;;;;;7.62;5.25;;;;;;;16.95;76.44;99808.63;1717586;80;21049;-75
2022/10/01 11:50:47;;;;;;;6.33;4.60;;;;;;;16.98;76.46;99806.23;1729219;80;21077;-74
2022/10/01 11:53:32;;;;;;;13.05;5.05;;;;;;;17.07;76.45;99809.52;1725419;80;20985;-75